Time;durP1;ratioP1;P1;durP2;ratioP2;P2;SDS_P1;SDS_P2;PMS_P1;PMS_P2;Temp;Humidity;BMP_temperature;BMP_pressure;BME280_temperature;BME280_humidity;BME280_pressure;Samples;Min_cycle;Max_cycle;Signal;HPM_P1;HPM_P2
2021/05/11 00:01:51;;;;;;;7.30;3.60;;;14.00;89.10;;;;;;5042723;28;20042;-84
2021/05/11 00:04:17;;;;;;;5.40;3.58;;;14.00;89.10;;;;;;5017794;28;20488;-84
2021/05/11 00:06:43;;;;;;;7.13;3.70;;;13.90;89.20;;;;;;5036753;28;20048;-85
2021/05/11 00:09:08;;;;;;;7.50;4.22;;;14.00;89.10;;;;;;5021701;28;20478;-84
2021/05/11 00:11:34;;;;;;;6.68;4.03;;;14.00;89.10;;;;;;5052394;28;20080;-84
2021/05/11 00:14:03;;;;;;;7.25;4.53;;;14.00;88.90;;;;;;5027213;28;20029;-85
2021/05/11 00:16:29;;;;;;;6.82;4.50;;;14.00;88.70;;;;;;5025028;28;20135;-85
2021/05/11 00:18:56;;;;;;;8.23;4.30;;;14.00;88.60;;;;;;5039806;28;20041;-85
2021/05/11 00:21:21;;;;;;;5.53;4.00;;;14.00;88.50;;;;;;5035562;28;20029;-84
2021/05/11 00:23:47;;;;;;;6.68;4.18;;;14.00;88.50;;;;;;5041487;28;20037;-85
2021/05/11 00:26:13;;;;;;;6.07;3.80;;;14.00;88.60;;;;;;5028445;28;20033;-84
2021/05/11 00:28:39;;;;;;;5.82;3.53;;;14.00;88.80;;;;;;5045240;28;20091;-84
2021/05/11 00:31:04;;;;;;;6.40;3.97;;;14.00;88.90;;;;;;5029256;28;20045;-84
2021/05/11 00:33:30;;;;;;;5.43;4.38;;;14.00;89.20;;;;;;5012775;28;20048;-84
2021/05/11 00:35:56;;;;;;;6.60;5.00;;;14.00;89.30;;;;;;5039357;28;20071;-84
2021/05/11 00:38:22;;;;;;;7.97;4.95;;;13.90;89.20;;;;;;5016293;28;20040;-84
2021/05/11 00:40:49;;;;;;;6.63;5.13;;;13.90;89.40;;;;;;5028669;28;20544;-84
2021/05/11 00:43:15;;;;;;;7.18;5.60;;;13.90;89.60;;;;;;5047759;28;20151;-84
2021/05/11 00:45:41;;;;;;;10.50;5.45;;;13.90;89.60;;;;;;5039036;28;20104;-84
2021/05/11 00:48:07;;;;;;;8.05;5.13;;;13.90;89.60;;;;;;5044566;28;20036;-84
2021/05/11 00:50:32;;;;;;;9.88;5.50;;;13.90;90.20;;;;;;5041628;28;20319;-85
2021/05/11 00:52:59;;;;;;;7.07;5.35;;;13.90;90.00;;;;;;5029402;28;20029;-85
2021/05/11 00:55:25;;;;;;;7.25;5.50;;;13.80;90.10;;;;;;5057376;28;20048;-86
2021/05/11 00:57:51;;;;;;;8.98;5.47;;;13.80;90.20;;;;;;5043199;28;20036;-85
2021/05/11 01:00:18;;;;;;;8.55;5.97;;;13.80;90.20;;;;;;5022227;28;20060;-85
2021/05/11 01:02:44;;;;;;;9.07;6.22;;;13.80;90.30;;;;;;5025879;28;20081;-85
2021/05/11 01:05:10;;;;;;;10.50;6.40;;;13.80;90.30;;;;;;5028319;28;20336;-85
2021/05/11 01:07:36;;;;;;;8.10;5.70;;;13.80;90.30;;;;;;5030158;28;20395;-86
2021/05/11 01:10:03;;;;;;;8.05;6.35;;;13.70;90.30;;;;;;5022706;28;20048;-85
2021/05/11 01:12:29;;;;;;;8.07;6.00;;;13.80;90.30;;;;;;5023427;28;20040;-85
2021/05/11 01:14:55;;;;;;;10.77;6.38;;;13.70;90.20;;;;;;5014409;28;20044;-86
2021/05/11 01:17:27;;;;;;;13.38;6.75;;;13.70;90.30;;;;;;5035571;28;20033;-86
2021/05/11 01:19:58;;;;;;;11.60;6.35;;;13.70;90.60;;;;;;5025928;28;20118;-85
2021/05/11 01:22:37;;;;;;;9.27;6.75;;;13.70;90.70;;;;;;5042699;28;20136;-85
2021/05/11 02:24:23;;;;;;;22.25;13.55;;;13.30;93.90;;;;;;5050024;28;20282;-83
2021/05/11 02:26:49;;;;;;;15.77;13.38;;;13.30;94.00;;;;;;5033380;28;20102;-81
2021/05/11 02:29:16;;;;;;;20.25;13.23;;;13.30;94.10;;;;;;5005792;28;20040;-82
2021/05/11 02:31:42;;;;;;;29.23;15.98;;;13.20;94.10;;;;;;5025912;28;20131;-82
2021/05/11 02:34:08;;;;;;;34.85;16.23;;;13.30;94.30;;;;;;5025316;28;20772;-82
2021/05/11 02:36:34;;;;;;;19.55;13.15;;;13.20;94.30;;;;;;5034918;28;20064;-82
2021/05/11 02:39:00;;;;;;;34.33;15.95;;;13.20;94.40;;;;;;5031660;28;20037;-82
2021/05/11 02:41:25;;;;;;;24.30;13.77;;;13.20;94.50;;;;;;5023778;28;20048;-82
2021/05/11 02:43:52;;;;;;;18.85;11.55;;;13.20;94.50;;;;;;5011982;28;20045;-83
2021/05/11 02:46:18;;;;;;;19.73;14.20;;;13.20;94.50;;;;;;5026732;28;20102;-82
2021/05/11 02:48:44;;;;;;;23.83;15.20;;;13.20;94.40;;;;;;5031993;28;20056;-83
2021/05/11 02:51:09;;;;;;;23.17;15.13;;;13.20;94.50;;;;;;5016162;28;20275;-82
2021/05/11 02:53:35;;;;;;;23.17;15.05;;;13.20;94.50;;;;;;5020720;28;20076;-82
2021/05/11 02:56:01;;;;;;;26.10;16.33;;;13.20;94.40;;;;;;5053103;28;20029;-82
2021/05/11 02:58:34;;;;;;;27.98;17.38;;;13.20;94.40;;;;;;5049828;28;20100;-81
2021/05/11 03:00:59;;;;;;;29.80;19.20;;;13.20;94.50;;;;;;5042181;28;20048;-82
2021/05/11 03:03:25;;;;;;;23.65;15.98;;;13.20;94.50;;;;;;5006722;28;20424;-82
2021/05/11 03:05:51;;;;;;;28.98;17.60;;;13.10;94.50;;;;;;5043563;28;20040;-81
2021/05/11 03:08:19;;;;;;;27.92;16.60;;;13.10;94.60;;;;;;5005348;28;20048;-82
2021/05/11 03:10:45;;;;;;;25.35;16.73;;;13.00;94.60;;;;;;5011137;28;20407;-82
2021/05/11 03:13:11;;;;;;;27.25;18.25;;;13.00;94.80;;;;;;5029547;28;20068;-80
2021/05/11 03:15:37;;;;;;;24.85;16.80;;;13.00;94.90;;;;;;5015956;28;20029;-81
2021/05/11 03:18:02;;;;;;;27.35;17.40;;;13.00;94.90;;;;;;5047796;28;20029;-81
2021/05/11 03:20:28;;;;;;;29.17;18.63;;;13.00;94.90;;;;;;5027897;28;20029;-81
2021/05/11 03:22:54;;;;;;;31.08;17.38;;;12.90;95.00;;;;;;5047373;28;20614;-83
2021/05/11 03:25:20;;;;;;;32.60;17.92;;;12.90;95.00;;;;;;5056531;28;20025;-84
2021/05/11 03:27:46;;;;;;;38.70;20.73;;;12.90;95.10;;;;;;5037286;28;20044;-83
2021/05/11 03:30:13;;;;;;;37.72;21.15;;;12.90;95.20;;;;;;5054737;28;20044;-83
2021/05/11 03:32:39;;;;;;;45.58;18.50;;;12.90;95.30;;;;;;5046540;28;20052;-84
2021/05/11 03:35:05;;;;;;;21.13;12.98;;;12.90;95.40;;;;;;5015444;28;20131;-83
2021/05/11 03:37:31;;;;;;;20.08;11.90;;;12.90;95.30;;;;;;5048649;28;20029;-83
2021/05/11 03:39:57;;;;;;;17.30;10.88;;;12.90;95.40;;;;;;5047507;28;20098;-83
2021/05/11 03:42:34;;;;;;;24.63;11.52;;;12.90;95.50;;;;;;5047306;28;20044;-83
2021/05/11 03:45:02;;;;;;;22.90;12.02;;;12.80;95.50;;;;;;5030186;28;20061;-84
2021/05/11 03:47:36;;;;;;;17.75;10.73;;;12.80;95.50;;;;;;5039142;28;20125;-84
2021/05/11 03:50:03;;;;;;;16.05;8.13;;;12.80;95.60;;;;;;5049344;28;20395;-83
2021/05/11 03:52:36;;;;;;;16.02;8.45;;;12.80;95.60;;;;;;5040121;28;20044;-83
2021/05/11 03:55:02;;;;;;;16.50;9.52;;;12.70;95.60;;;;;;5043679;28;20041;-84
2021/05/11 03:57:27;;;;;;;24.02;9.65;;;12.70;95.60;;;;;;5019496;28;20351;-83
2021/05/11 03:59:53;;;;;;;20.23;9.02;;;12.70;95.60;;;;;;5043041;28;20477;-82
2021/05/11 04:02:19;;;;;;;10.13;6.35;;;12.70;95.60;;;;;;5028197;28;20490;-82
2021/05/11 04:04:45;;;;;;;20.50;7.55;;;12.60;95.60;;;;;;5047930;28;20040;-84
2021/05/11 04:07:13;;;;;;;12.10;5.97;;;12.60;95.70;;;;;;5041354;28;20035;-82
2021/05/11 04:09:45;;;;;;;15.52;7.55;;;12.60;95.60;;;;;;5024291;28;20068;-83
2021/05/11 04:17:24;;;;;;;15.45;7.45;;;12.50;95.70;;;;;;5034572;28;20071;-82
2021/05/11 04:19:50;;;;;;;8.95;6.28;;;12.50;95.90;;;;;;5059235;28;20218;-82
2021/05/11 04:22:20;;;;;;;14.32;6.53;;;12.50;95.90;;;;;;5046033;28;20071;-86
2021/05/11 04:24:45;;;;;;;15.38;7.45;;;12.50;95.90;;;;;;5050470;28;20045;-82
2021/05/11 04:27:12;;;;;;;23.83;7.93;;;12.50;95.90;;;;;;5065413;28;20487;-83
2021/05/11 04:29:38;;;;;;;12.40;6.25;;;12.40;96.00;;;;;;5067824;28;21257;-82
2021/05/11 04:32:04;;;;;;;12.70;6.88;;;12.40;96.00;;;;;;5064499;28;20033;-81
2021/05/11 04:34:34;;;;;;;16.13;6.25;;;12.40;96.00;;;;;;5045491;28;20041;-82
2021/05/11 04:37:00;;;;;;;7.25;4.40;;;12.40;96.10;;;;;;5036764;28;20037;-82
2021/05/11 04:39:26;;;;;;;8.18;5.32;;;12.40;96.10;;;;;;5049324;28;20044;-82
2021/05/11 04:41:51;;;;;;;9.60;5.30;;;12.40;96.10;;;;;;5049140;28;20102;-82
2021/05/11 04:44:19;;;;;;;12.55;5.78;;;12.40;96.10;;;;;;5045906;28;20329;-82
2021/05/11 04:49:13;;;;;;;12.90;5.85;;;12.40;96.10;;;;;;5040529;28;20120;-82
2021/05/11 04:51:40;;;;;;;12.00;5.40;;;12.40;96.20;;;;;;5020884;28;20290;-83
2021/05/11 04:54:06;;;;;;;6.20;4.38;;;12.40;96.30;;;;;;5022886;28;20036;-82
2021/05/11 04:56:35;;;;;;;16.73;5.60;;;12.40;96.30;;;;;;4990186;28;20041;-82
2021/05/11 04:59:01;;;;;;;6.35;4.30;;;12.40;96.30;;;;;;5023020;28;20039;-81
2021/05/11 05:01:27;;;;;;;9.88;5.18;;;12.40;96.30;;;;;;5041378;28;20033;-82
2021/05/11 05:03:55;;;;;;;7.68;4.88;;;12.40;96.30;;;;;;5036888;28;20426;-82
2021/05/11 05:06:21;;;;;;;6.05;4.70;;;12.40;96.20;;;;;;5045385;28;20037;-81
2021/05/11 05:08:47;;;;;;;9.55;5.43;;;12.40;96.30;;;;;;5032575;28;20037;-81
2021/05/11 05:11:14;;;;;;;8.35;5.78;;;12.30;96.20;;;;;;5046763;28;20032;-82
2021/05/11 05:13:40;;;;;;;7.18;4.85;;;12.40;96.30;;;;;;5040340;28;20041;-82
2021/05/11 05:16:06;;;;;;;10.52;5.72;;;12.30;96.20;;;;;;5007983;28;20040;-82
2021/05/11 05:18:31;;;;;;;8.93;4.55;;;12.30;96.20;;;;;;5037191;28;20395;-81
2021/05/11 05:21:05;;;;;;;6.78;4.13;;;12.30;96.30;;;;;;5043089;28;20229;-81
2021/05/11 05:23:37;;;;;;;5.22;3.83;;;12.30;96.20;;;;;;5033647;28;20040;-80
2021/05/11 05:26:08;;;;;;;8.48;5.47;;;12.30;96.20;;;;;;5040074;28;20183;-81
2021/05/11 05:28:37;;;;;;;10.13;5.85;;;12.30;96.20;;;;;;5036415;28;20041;-81
2021/05/11 05:31:03;;;;;;;10.10;5.85;;;12.30;96.20;;;;;;5030021;28;20048;-81
2021/05/11 05:33:31;;;;;;;7.13;4.57;;;12.30;96.30;;;;;;5018149;28;20041;-81
2021/05/11 05:35:56;;;;;;;8.23;4.13;;;12.30;96.40;;;;;;5045594;28;20056;-81
2021/05/11 05:38:22;;;;;;;7.40;3.83;;;12.30;96.40;;;;;;5042309;28;20037;-81
2021/05/11 05:40:55;;;;;;;6.00;3.88;;;12.40;96.40;;;;;;5034167;28;20356;-81
2021/05/11 05:43:21;;;;;;;;;;;12.40;96.30;;;;;;5029500;28;20103;-80
2021/05/11 05:45:46;;;;;;;6.10;3.72;;;12.40;96.40;;;;;;5043393;28;20016;-81
2021/05/11 05:48:13;;;;;;;4.90;4.15;;;12.40;96.20;;;;;;5023413;28;20041;-81
2021/05/11 05:50:42;;;;;;;6.57;4.93;;;12.40;96.10;;;;;;5039049;28;20033;-81
2021/05/11 05:53:21;;;;;;;7.28;6.28;;;12.50;96.20;;;;;;5038603;28;20067;-81
2021/05/11 05:55:47;;;;;;;14.25;8.98;;;12.50;96.40;;;;;;5032669;28;20072;-82
2021/05/11 05:58:12;;;;;;;17.38;13.10;;;12.60;96.30;;;;;;5002011;28;20060;-82
2021/05/11 06:00:39;;;;;;;26.02;15.35;;;12.60;96.50;;;;;;5010249;28;20493;-82
2021/05/11 06:03:34;;;;;;;21.42;15.00;;;12.70;96.50;;;;;;4996431;28;20407;-81
2021/05/11 06:06:08;;;;;;;17.27;13.18;;;12.70;96.70;;;;;;5038544;28;20041;-80
2021/05/11 06:08:36;;;;;;;14.32;11.85;;;12.80;96.80;;;;;;5040859;28;20570;-85
2021/05/11 06:19:16;;;;;;;11.93;9.48;;;13.10;96.70;;;;;;5040600;28;20036;-82
2021/05/11 06:21:43;;;;;;;11.00;8.55;;;13.20;96.80;;;;;;5024489;28;20038;-82
2021/05/11 06:24:09;;;;;;;8.48;6.93;;;13.20;96.70;;;;;;5027687;28;20449;-78
2021/05/11 06:26:35;;;;;;;10.52;6.57;;;13.20;96.60;;;;;;5024688;28;20504;-80
2021/05/11 06:29:03;;;;;;;7.45;6.35;;;13.30;96.50;;;;;;5040784;28;20089;-80
2021/05/11 06:31:28;;;;;;;10.63;6.72;;;13.30;96.50;;;;;;5026204;28;20251;-78
2021/05/11 06:33:54;;;;;;;13.25;8.65;;;13.30;96.50;;;;;;5043288;28;20051;-84
2021/05/11 06:36:21;;;;;;;18.00;8.27;;;13.30;96.60;;;;;;5033023;28;20045;-80
2021/05/11 06:38:47;;;;;;;12.48;7.47;;;13.30;96.50;;;;;;5044109;28;20621;-79
2021/05/11 06:41:14;;;;;;;11.52;6.60;;;13.30;96.60;;;;;;5030556;28;20442;-82
2021/05/11 06:43:42;;;;;;;8.15;4.57;;;13.30;96.50;;;;;;5006262;28;20408;-79
2021/05/11 06:54:38;;;;;;;9.70;4.97;;;13.20;96.50;;;;;;5041485;28;20033;-83
2021/05/11 06:57:07;;;;;;;7.68;4.00;;;13.20;96.40;;;;;;5004432;28;20232;-82
2021/05/11 06:59:34;;;;;;;8.18;4.00;;;13.30;96.50;;;;;;5020959;28;20041;-81
2021/05/11 07:02:01;;;;;;;13.07;5.38;;;13.20;96.50;;;;;;5035740;28;20043;-83
2021/05/11 07:04:27;;;;;;;9.40;4.60;;;13.20;96.40;;;;;;5044279;28;20036;-80
2021/05/11 07:06:53;;;;;;;7.97;4.13;;;13.20;96.50;;;;;;5025576;28;20044;-80
2021/05/11 07:09:32;;;;;;;13.63;5.18;;;13.20;96.50;;;;;;5030636;28;20033;-81
2021/05/11 07:14:23;;;;;;;8.55;4.75;;;13.30;96.90;;;;;;5040946;28;20602;-80
2021/05/11 07:16:49;;;;;;;7.53;4.57;;;13.40;96.60;;;;;;5038228;28;20041;-83
2021/05/11 07:19:14;;;;;;;8.10;3.67;;;13.40;96.60;;;;;;5043845;28;20041;-83
2021/05/11 07:21:40;;;;;;;8.02;4.45;;;13.40;96.50;;;;;;5045937;28;20039;-81
2021/05/11 07:24:07;;;;;;;6.70;4.65;;;13.40;96.40;;;;;;5042976;28;20130;-82
2021/05/11 07:26:33;;;;;;;6.45;4.53;;;13.40;96.40;;;;;;5040973;28;20037;-82
2021/05/11 07:31:31;;;;;;;6.30;5.70;;;13.40;96.40;;;;;;5013635;28;20659;-82
2021/05/11 07:33:58;;;;;;;11.18;6.68;;;13.50;96.50;;;;;;5026183;28;20037;-82
2021/05/11 07:36:24;;;;;;;7.40;5.93;;;13.50;96.40;;;;;;5027226;28;20048;-83
2021/05/11 07:38:50;;;;;;;9.88;7.45;;;13.50;96.50;;;;;;5020220;28;20185;-83
2021/05/11 07:41:17;;;;;;;14.70;7.55;;;13.60;96.50;;;;;;5040631;28;20155;-83
2021/05/11 07:43:48;;;;;;;8.90;7.05;;;13.60;96.50;;;;;;5035958;28;20776;-83
2021/05/11 08:01:55;;;;;;;11.60;9.60;;;14.10;96.40;;;;;;5043116;28;20045;-83
2021/05/11 08:15:34;;;;;;;14.82;10.70;;;14.80;96.00;;;;;;5038279;28;20033;-83
2021/05/11 08:23:26;;;;;;;12.48;9.75;;;14.90;95.80;;;;;;5031896;28;20439;-84
2021/05/11 08:28:29;;;;;;;9.23;8.27;;;14.90;95.70;;;;;;5036793;28;20059;-82
2021/05/11 08:30:55;;;;;;;13.00;8.82;;;14.90;95.70;;;;;;5042104;28;20048;-87
2021/05/11 08:33:21;;;;;;;9.65;7.75;;;14.90;95.80;;;;;;5039142;28;20256;-83
2021/05/11 08:35:50;;;;;;;8.70;5.88;;;14.90;95.70;;;;;;5029616;28;22747;-83
2021/05/11 08:38:16;;;;;;;10.93;6.32;;;15.00;95.80;;;;;;5050967;28;20025;-84
2021/05/11 08:40:42;;;;;;;4.38;3.15;;;15.10;95.80;;;;;;5053094;28;20039;-83
2021/05/11 08:43:35;;;;;;;4.45;2.92;;;15.10;95.20;;;;;;5025277;28;20191;-84
2021/05/11 08:46:04;;;;;;;9.10;4.13;;;15.10;94.80;;;;;;5038963;28;20033;-84
2021/05/11 08:48:31;;;;;;;5.18;3.40;;;15.10;94.70;;;;;;5047262;28;20036;-84
2021/05/11 09:05:07;;;;;;;6.47;2.92;;;15.30;94.60;;;;;;5043373;28;20299;-85
2021/05/11 10:47:00;;;;;;;4.40;1.50;;;17.00;90.30;;;;;;5045854;28;20040;-84
2021/05/11 10:49:32;;;;;;;5.28;1.60;;;16.80;90.30;;;;;;5045456;28;20247;-84
2021/05/11 10:52:14;;;;;;;3.85;1.73;;;16.70;90.30;;;;;;5045609;28;20061;-87
2021/05/11 10:54:44;;;;;;;3.83;2.17;;;16.70;90.60;;;;;;5039304;28;20044;-84
2021/05/11 10:57:25;;;;;;;3.15;1.58;;;16.70;91.10;;;;;;5047147;28;20095;-84
2021/05/11 11:00:38;;;;;;;8.77;3.40;;;16.80;91.10;;;;;;5048482;28;20104;-84
2021/05/11 11:02:48;;;;;;;2.38;1.80;;;16.80;91.00;;;;;;5047128;28;20499;-83
2021/05/11 11:05:38;;;;;;;3.63;1.98;;;16.70;90.70;;;;;;5027218;28;20033;-87
2021/05/11 11:08:04;;;;;;;2.00;1.77;;;16.70;90.50;;;;;;5047553;28;20051;-82
2021/05/11 11:10:30;;;;;;;3.88;2.10;;;16.60;90.50;;;;;;5066406;28;20049;-84
2021/05/11 11:12:57;;;;;;;5.60;2.45;;;16.50;90.30;;;;;;5054515;28;20060;-88
2021/05/11 11:15:23;;;;;;;3.72;2.47;;;16.50;90.10;;;;;;5029296;28;20044;-86
2021/05/11 11:17:53;;;;;;;3.50;2.85;;;16.40;90.00;;;;;;5073515;28;20093;-84
2021/05/11 11:20:21;;;;;;;5.43;3.60;;;16.30;89.90;;;;;;5049759;28;20037;-84
2021/05/11 11:26:24;;;;;;;4.70;4.05;;;16.10;90.10;;;;;;5064072;28;20045;-85
2021/05/11 11:28:57;;;;;;;7.65;4.90;;;15.90;90.20;;;;;;5039440;28;20045;-84
2021/05/11 11:31:25;;;;;;;5.75;4.18;;;15.80;90.50;;;;;;5053486;28;20305;-82
2021/05/11 11:33:51;;;;;;;3.17;2.88;;;15.80;90.70;;;;;;5054217;28;20515;-86
2021/05/11 11:36:33;;;;;;;4.25;2.92;;;15.70;90.50;;;;;;5047051;28;20213;-87
2021/05/11 11:39:00;;;;;;;5.10;3.03;;;15.60;90.50;;;;;;5033772;28;20539;-85
2021/05/11 11:41:27;;;;;;;5.30;2.88;;;15.60;90.80;;;;;;5052303;28;20033;-88
2021/05/11 11:43:54;;;;;;;3.83;2.85;;;15.60;91.00;;;;;;5051931;28;20294;-87
2021/05/11 11:46:30;;;;;;;4.25;2.45;;;15.70;90.70;;;;;;5039671;28;20044;-85
2021/05/11 11:49:02;;;;;;;5.28;3.08;;;15.70;90.20;;;;;;5056764;28;20039;-83
2021/05/11 11:51:30;;;;;;;;;;;15.70;90.40;;;;;;5033867;28;20029;-83
2021/05/11 11:54:21;;;;;;;4.03;2.70;;;15.80;90.50;;;;;;5064700;28;20429;-83
2021/05/11 11:59:32;;;;;;;3.38;2.90;;;15.70;90.30;;;;;;5050355;28;20041;-83
2021/05/11 12:02:03;;;;;;;5.68;3.03;;;15.70;90.80;;;;;;5050939;28;20434;-88
2021/05/11 12:04:31;;;;;;;3.40;3.10;;;15.60;90.40;;;;;;5052214;28;20476;-86
2021/05/11 12:07:07;;;;;;;7.38;3.35;;;15.70;90.70;;;;;;5036476;28;20557;-84
2021/05/11 12:09:33;;;;;;;4.53;3.17;;;15.60;90.60;;;;;;5050636;28;20297;-85
2021/05/11 12:12:00;;;;;;;4.03;2.72;;;15.70;90.70;;;;;;5043387;28;20056;-85
2021/05/11 12:14:27;;;;;;;5.95;2.75;;;15.70;90.60;;;;;;5046329;28;20409;-86
2021/05/11 12:16:53;;;;;;;6.40;2.90;;;15.60;90.40;;;;;;5051772;28;20041;-82
2021/05/11 12:19:23;;;;;;;5.10;2.88;;;15.60;90.30;;;;;;5028984;28;20040;-86
2021/05/11 12:21:58;;;;;;;5.20;3.30;;;15.60;90.30;;;;;;5048768;28;20051;-84
2021/05/11 12:24:26;;;;;;;4.07;3.20;;;15.60;90.30;;;;;;5051349;28;20040;-88
2021/05/11 12:27:08;;;;;;;5.20;2.67;;;15.60;90.50;;;;;;5041759;28;20041;-86
2021/05/11 12:29:34;;;;;;;4.25;3.10;;;15.70;90.90;;;;;;5050539;28;20040;-90
2021/05/11 12:32:00;;;;;;;4.28;2.63;;;15.70;90.80;;;;;;5035138;28;20171;-88
2021/05/11 12:34:26;;;;;;;6.50;2.80;;;15.70;90.90;;;;;;5022299;28;20112;-85
2021/05/11 12:36:58;;;;;;;4.93;3.13;;;15.70;90.80;;;;;;5044051;28;20064;-86
2021/05/11 12:41:51;;;;;;;4.70;3.10;;;15.70;90.90;;;;;;5047350;28;19992;-88
2021/05/11 12:44:29;;;;;;;8.60;3.72;;;15.70;90.90;;;;;;5036853;28;20454;-83
2021/05/11 12:47:01;;;;;;;2.60;1.88;;;15.70;91.10;;;;;;5059853;28;20510;-83
2021/05/11 12:49:29;;;;;;;3.05;2.03;;;15.60;90.70;;;;;;5042193;28;21433;-83
2021/05/11 12:51:56;;;;;;;2.30;1.92;;;15.50;91.00;;;;;;5045521;28;20060;-86
2021/05/11 12:54:37;;;;;;;3.15;2.50;;;15.30;91.10;;;;;;5050206;28;20029;-85
2021/05/11 12:57:10;;;;;;;8.02;2.42;;;15.30;91.30;;;;;;5051346;28;20120;-84
2021/05/11 13:00:00;;;;;;;4.13;2.45;;;15.20;91.70;;;;;;5037620;28;20033;-85
2021/05/11 13:16:18;;;;;;;3.05;2.60;;;15.20;92.00;;;;;;5044138;28;20067;-85
2021/05/11 13:21:37;;;;;;;5.00;3.10;;;15.20;92.10;;;;;;5038768;28;20560;-85
2021/05/11 13:26:59;;;;;;;4.60;3.55;;;15.10;92.40;;;;;;5044829;28;20108;-84
2021/05/11 13:32:00;;;;;;;4.70;3.70;;;15.00;92.50;;;;;;5036703;28;20044;-84
2021/05/11 13:34:26;;;;;;;3.55;3.25;;;15.00;92.60;;;;;;5031664;28;20404;-84
2021/05/11 13:36:52;;;;;;;6.03;3.08;;;14.90;92.60;;;;;;5028550;28;20049;-83
2021/05/11 13:39:18;;;;;;;3.67;2.72;;;14.90;92.70;;;;;;5004453;28;20041;-85
2021/05/11 13:41:46;;;;;;;3.58;2.10;;;14.90;92.70;;;;;;4998611;28;20041;-85
2021/05/11 13:44:12;;;;;;;5.22;1.90;;;14.90;92.70;;;;;;5049729;28;20060;-86
2021/05/11 13:46:37;;;;;;;4.65;2.05;;;14.80;92.60;;;;;;5022041;28;20115;-87
2021/05/11 13:49:04;;;;;;;5.05;1.95;;;14.80;92.60;;;;;;5018313;28;20118;-85
2021/05/11 13:51:30;;;;;;;4.57;2.55;;;14.80;92.60;;;;;;5018335;28;20037;-89
2021/05/11 13:54:00;;;;;;;3.75;2.33;;;14.80;92.70;;;;;;5047200;28;20384;-87
2021/05/11 14:02:00;;;;;;;2.40;2.13;;;14.80;92.80;;;;;;5044503;28;20033;-87
2021/05/11 14:04:23;;;;;;;4.15;2.10;;;14.80;92.70;;;;;;5057423;28;20040;-85
2021/05/11 14:06:49;;;;;;;2.03;1.83;;;14.90;92.70;;;;;;5031614;28;20103;-89
2021/05/11 14:09:16;;;;;;;2.95;2.10;;;14.90;92.70;;;;;;5065500;28;20033;-88
2021/05/11 14:11:42;;;;;;;3.33;2.10;;;14.80;92.50;;;;;;5026674;28;20147;-85
2021/05/11 14:14:10;;;;;;;2.58;1.42;;;14.90;92.70;;;;;;5041245;28;20472;-84
2021/05/11 14:16:36;;;;;;;2.30;1.83;;;14.90;92.50;;;;;;5043244;28;20180;-84
2021/05/11 14:19:03;;;;;;;1.98;1.60;;;14.90;92.90;;;;;;5046913;28;20060;-84
2021/05/11 14:21:29;;;;;;;2.92;2.22;;;14.90;92.60;;;;;;5047597;28;20029;-85
2021/05/11 14:23:56;;;;;;;2.53;1.95;;;14.90;92.60;;;;;;5025312;28;20059;-85
2021/05/11 14:26:27;;;;;;;4.57;2.13;;;15.00;92.60;;;;;;5032413;28;20468;-83
2021/05/11 14:28:53;;;;;;;6.38;2.80;;;14.90;92.70;;;;;;5050889;28;20040;-87
2021/05/11 14:31:19;;;;;;;6.15;3.30;;;14.90;92.70;;;;;;5046787;28;20036;-87
2021/05/11 14:33:45;;;;;;;4.95;1.92;;;14.90;92.80;;;;;;5047209;28;20029;-85
2021/05/11 14:36:11;;;;;;;2.33;2.00;;;15.00;92.60;;;;;;5027593;28;20061;-86
2021/05/11 14:38:37;;;;;;;4.35;2.33;;;15.00;92.40;;;;;;5053405;28;20479;-85
2021/05/11 14:41:04;;;;;;;4.53;2.30;;;15.00;92.40;;;;;;5048554;28;20055;-84
2021/05/11 14:43:31;;;;;;;6.35;2.40;;;15.00;92.40;;;;;;5049507;28;20044;-86
2021/05/11 14:45:59;;;;;;;2.40;2.10;;;14.90;92.50;;;;;;5054394;28;20056;-86
2021/05/11 14:48:25;;;;;;;5.97;2.00;;;14.90;92.70;;;;;;5044811;28;20035;-84
2021/05/11 14:50:51;;;;;;;2.67;2.20;;;14.90;92.60;;;;;;5046780;28;20040;-85
2021/05/11 14:53:18;;;;;;;2.55;2.35;;;15.00;92.60;;;;;;5047680;28;20047;-85
2021/05/11 14:55:44;;;;;;;3.90;2.13;;;15.00;92.70;;;;;;5047092;28;20033;-86
2021/05/11 14:58:10;;;;;;;4.03;1.88;;;15.00;92.40;;;;;;5033196;28;20037;-82
2021/05/11 15:00:36;;;;;;;7.13;1.88;;;15.00;92.10;;;;;;5028175;28;20087;-84
2021/05/11 15:03:02;;;;;;;3.15;1.77;;;14.90;91.70;;;;;;5046454;28;20059;-86
2021/05/11 15:05:27;;;;;;;5.95;1.63;;;14.90;91.70;;;;;;5052554;28;20039;-85
2021/05/11 15:07:54;;;;;;;4.30;1.58;;;14.90;91.70;;;;;;5031674;28;20065;-90
2021/05/11 15:10:20;;;;;;;3.00;1.70;;;14.90;91.30;;;;;;5031475;28;20120;-86
2021/05/11 15:12:48;;;;;;;2.05;1.75;;;14.90;91.40;;;;;;5048825;28;20033;-83
2021/05/11 15:15:20;;;;;;;5.35;1.63;;;14.90;91.20;;;;;;5043586;28;20047;-86
2021/05/11 15:20:14;;;;;;;2.78;1.73;;;14.70;90.50;;;;;;5048482;28;20049;-84
2021/05/11 15:22:41;;;;;;;4.63;2.10;;;14.70;90.50;;;;;;5042919;28;20533;-88
2021/05/11 15:25:07;;;;;;;4.60;2.00;;;14.70;90.60;;;;;;5044135;28;20053;-89
2021/05/11 15:27:35;;;;;;;3.20;1.70;;;14.60;90.80;;;;;;5059492;28;20037;-84
2021/05/11 15:30:03;;;;;;;6.38;2.05;;;14.70;90.70;;;;;;5043382;28;20103;-89
2021/05/11 15:32:47;;;;;;;4.65;2.17;;;14.70;90.70;;;;;;5044294;28;20534;-85
2021/05/11 15:35:15;;;;;;;4.72;2.10;;;14.60;90.50;;;;;;5060301;28;20436;-84
2021/05/11 15:37:43;;;;;;;4.22;2.47;;;14.60;90.70;;;;;;5061351;28;20487;-84
2021/05/11 15:40:12;;;;;;;5.43;2.08;;;14.60;90.80;;;;;;5061441;28;20076;-88
2021/05/11 15:42:38;;;;;;;3.42;2.47;;;14.60;90.70;;;;;;5041751;28;20040;-85
2021/05/11 15:45:05;;;;;;;4.10;2.08;;;14.60;90.60;;;;;;5046605;28;20036;-87
2021/05/11 15:47:31;;;;;;;6.30;2.38;;;14.50;90.50;;;;;;5044763;28;20442;-84
2021/05/11 15:49:57;;;;;;;2.78;2.10;;;14.50;90.60;;;;;;5029557;28;20033;-83
2021/05/11 15:52:23;;;;;;;5.63;2.60;;;14.50;90.70;;;;;;5027376;28;20045;-84
2021/05/11 15:54:50;;;;;;;3.83;2.90;;;14.40;91.00;;;;;;5023579;28;20042;-86
2021/05/11 15:57:17;;;;;;;4.15;2.42;;;14.40;90.70;;;;;;5046123;28;20037;-83
2021/05/11 15:59:43;;;;;;;3.75;2.80;;;14.40;90.70;;;;;;5060320;28;20041;-84
2021/05/11 16:02:10;;;;;;;4.40;2.17;;;14.40;90.90;;;;;;5042143;28;20024;-86
2021/05/11 16:04:36;;;;;;;3.97;2.58;;;14.30;91.30;;;;;;5043832;28;20275;-84
2021/05/11 16:07:03;;;;;;;6.75;3.50;;;14.40;90.90;;;;;;5039647;28;20040;-85
2021/05/11 16:09:29;;;;;;;5.15;2.90;;;14.30;90.90;;;;;;5010906;28;20033;-84
2021/05/11 16:11:56;;;;;;;5.47;3.50;;;14.40;91.10;;;;;;5036131;28;20052;-83
2021/05/11 16:14:22;;;;;;;6.70;3.75;;;14.30;91.10;;;;;;5050787;28;20037;-84
2021/05/11 16:16:48;;;;;;;8.70;4.00;;;14.30;91.00;;;;;;5027588;28;20510;-86
2021/05/11 16:19:14;;;;;;;8.07;4.00;;;14.30;91.00;;;;;;5017957;28;20041;-85
2021/05/11 16:21:40;;;;;;;6.15;4.47;;;14.30;90.90;;;;;;5015613;28;20488;-82
2021/05/11 16:24:06;;;;;;;6.78;4.38;;;14.30;91.00;;;;;;5047509;28;20044;-84
2021/05/11 16:26:32;;;;;;;5.25;4.15;;;14.30;91.00;;;;;;5031755;28;20037;-84
2021/05/11 16:28:58;;;;;;;5.88;3.65;;;14.30;91.10;;;;;;5046553;28;20095;-84
2021/05/11 16:31:24;;;;;;;5.35;3.65;;;14.20;91.00;;;;;;5016098;28;20135;-85
2021/05/11 16:33:50;;;;;;;5.32;3.70;;;14.20;90.90;;;;;;5031851;28;20037;-85
2021/05/11 16:36:17;;;;;;;5.93;4.03;;;14.20;90.90;;;;;;5013186;28;20052;-84
2021/05/11 16:38:43;;;;;;;7.50;4.28;;;14.20;91.00;;;;;;5030351;28;20040;-83
2021/05/11 16:41:09;;;;;;;6.47;4.18;;;14.10;91.10;;;;;;5064586;28;20052;-82
2021/05/11 16:43:36;;;;;;;6.05;4.30;;;14.10;91.00;;;;;;5059312;28;20100;-84
2021/05/11 16:46:05;;;;;;;6.85;4.57;;;14.10;91.00;;;;;;5040723;28;20557;-85
2021/05/11 16:48:33;;;;;;;7.35;5.35;;;14.10;91.40;;;;;;5034909;28;20439;-85
2021/05/11 16:51:00;;;;;;;6.30;4.57;;;14.10;91.20;;;;;;5028780;28;20029;-83
2021/05/11 16:53:26;;;;;;;6.63;4.38;;;14.10;91.20;;;;;;5063226;28;20040;-84
2021/05/11 16:55:53;;;;;;;6.20;4.75;;;14.10;91.30;;;;;;5045723;28;20037;-86
2021/05/11 16:58:18;;;;;;;7.55;5.15;;;14.10;91.30;;;;;;5040293;28;20036;-88
2021/05/11 17:00:44;;;;;;;11.57;6.05;;;14.10;91.30;;;;;;5002086;28;20432;-87
2021/05/11 17:03:10;;;;;;;7.13;6.20;;;14.10;91.40;;;;;;5048927;28;20106;-83
2021/05/11 17:05:37;;;;;;;7.40;5.72;;;14.00;91.50;;;;;;5043165;28;20410;-86
2021/05/11 17:08:06;;;;;;;7.15;6.07;;;14.00;91.50;;;;;;5042683;28;20120;-86
2021/05/11 17:10:33;;;;;;;9.80;6.97;;;14.00;91.50;;;;;;5042843;28;20055;-84
2021/05/11 17:13:01;;;;;;;8.38;6.00;;;14.00;91.60;;;;;;5036543;28;20040;-87
2021/05/11 17:15:28;;;;;;;8.85;5.72;;;13.90;91.60;;;;;;5040963;28;20116;-85
2021/05/11 17:17:55;;;;;;;7.05;6.15;;;13.90;91.50;;;;;;5059420;28;20550;-86
2021/05/11 17:20:23;;;;;;;8.20;6.50;;;13.90;91.50;;;;;;5043682;28;20037;-86
2021/05/11 17:22:50;;;;;;;7.40;6.35;;;13.90;91.60;;;;;;5056663;28;20483;-85